createdAt,value
2018-08-20T00:01:39.620Z,24.08
2018-08-20T00:04:09.345Z,24.09
2018-08-20T00:06:48.997Z,24.04
2018-08-20T00:09:17.183Z,24.02
2018-08-20T00:11:45.236Z,23.89
2018-08-20T00:14:12.966Z,23.71
2018-08-20T00:16:40.692Z,23.70
2018-08-20T00:19:12.718Z,23.67
2018-08-20T00:21:40.663Z,23.53
2018-08-20T00:24:08.397Z,23.54
2018-08-20T00:26:36.197Z,23.54
2018-08-20T00:29:05.414Z,23.57
2018-08-20T00:31:33.181Z,23.61
2018-08-20T00:34:00.838Z,23.65
2018-08-20T00:36:28.523Z,23.71
2018-08-20T00:38:56.183Z,23.78
2018-08-20T00:41:23.829Z,23.81
2018-08-20T00:43:51.556Z,23.81
2018-08-20T00:46:19.214Z,23.69
2018-08-20T00:48:46.915Z,23.64
2018-08-20T00:51:14.595Z,23.63
2018-08-20T00:53:42.274Z,23.54
2018-08-20T00:56:10.854Z,23.53
2018-08-20T00:58:38.547Z,23.45
2018-08-20T01:01:06.758Z,23.45
2018-08-20T01:03:34.435Z,23.43
2018-08-20T01:06:02.179Z,23.41
2018-08-20T01:08:29.857Z,23.39
2018-08-20T01:10:57.589Z,23.39
2018-08-20T01:13:25.263Z,23.34
2018-08-20T01:15:52.959Z,23.18
2018-08-20T01:18:20.642Z,23.11
2018-08-20T01:20:48.334Z,23.09
2018-08-20T01:23:16.041Z,22.97
2018-08-20T01:25:43.741Z,22.70
2018-08-20T01:28:11.443Z,22.60
2018-08-20T01:30:39.119Z,22.63
2018-08-20T01:33:12.146Z,22.72
2018-08-20T01:35:39.826Z,22.76
2018-08-20T01:38:07.485Z,22.73
2018-08-20T01:40:35.186Z,22.81
2018-08-20T01:43:02.894Z,22.82
2018-08-20T01:45:30.608Z,22.86
2018-08-20T01:47:58.281Z,22.84
2018-08-20T01:50:25.961Z,22.68
2018-08-20T01:52:53.686Z,22.66
2018-08-20T01:55:21.387Z,22.81
2018-08-20T01:57:49.058Z,22.84
2018-08-20T02:00:16.731Z,22.93
2018-08-20T02:02:48.891Z,22.99
2018-08-20T02:05:16.626Z,22.96
2018-08-20T02:07:44.406Z,22.86
2018-08-20T02:10:12.057Z,22.81
2018-08-20T02:12:40.742Z,22.57
2018-08-20T02:15:08.434Z,22.45
2018-08-20T02:17:36.191Z,22.40
2018-08-20T02:20:04.112Z,22.44
2018-08-20T02:22:31.978Z,22.49
2018-08-20T02:24:59.763Z,22.37
2018-08-20T02:27:27.501Z,22.33
2018-08-20T02:29:55.161Z,22.50
2018-08-20T02:32:22.883Z,22.32
2018-08-20T02:34:50.533Z,22.27
2018-08-20T02:37:18.226Z,22.28
2018-08-20T02:39:45.914Z,22.26
2018-08-20T02:42:13.707Z,22.30
2018-08-20T02:44:41.395Z,22.37
2018-08-20T02:47:09.072Z,22.30
2018-08-20T02:49:36.839Z,22.33
2018-08-20T02:52:04.737Z,22.20
2018-08-20T02:54:32.403Z,22.14
2018-08-20T02:57:00.098Z,22.21
2018-08-20T02:59:27.799Z,22.18
2018-08-20T03:01:55.535Z,22.30
2018-08-20T03:04:23.204Z,22.25
2018-08-20T03:06:50.878Z,22.11
2018-08-20T03:09:18.574Z,21.90
2018-08-20T03:11:46.298Z,22.04
2018-08-20T03:14:14.107Z,22.11
2018-08-20T03:16:41.769Z,22.19
2018-08-20T03:19:10.192Z,22.33
2018-08-20T03:21:37.878Z,22.38
2018-08-20T03:24:05.879Z,22.49
2018-08-20T03:26:33.677Z,22.30
2018-08-20T03:29:01.402Z,22.19
2018-08-20T03:31:29.469Z,22.24
2018-08-20T03:33:57.179Z,22.33
2018-08-20T03:36:24.950Z,22.41
2018-08-20T03:38:52.611Z,22.42
2018-08-20T03:41:20.345Z,22.59
2018-08-20T03:43:48.025Z,22.60
2018-08-20T03:46:15.749Z,22.88
2018-08-20T03:48:43.409Z,23.12
2018-08-20T03:51:11.095Z,23.26
2018-08-20T03:53:38.823Z,23.28
2018-08-20T03:56:06.585Z,23.37
2018-08-20T03:58:34.277Z,23.74
2018-08-20T04:01:02.510Z,25.02
2018-08-20T04:03:30.399Z,25.99
2018-08-20T04:05:58.102Z,26.58
2018-08-20T04:08:25.772Z,27.29
2018-08-20T04:10:53.417Z,27.67
2018-08-20T04:13:21.066Z,27.71
2018-08-20T04:15:48.761Z,28.62
2018-08-20T04:18:16.400Z,29.29
2018-08-20T04:20:44.106Z,28.83
2018-08-20T04:23:11.829Z,28.67
2018-08-20T04:25:39.542Z,29.32
2018-08-20T04:28:07.218Z,29.72
2018-08-20T04:30:34.971Z,29.81
2018-08-20T04:33:02.591Z,29.60
2018-08-20T04:35:30.273Z,30.69
2018-08-20T04:37:57.938Z,31.55
2018-08-20T04:40:25.666Z,32.47
2018-08-20T04:42:53.326Z,32.56
2018-08-20T04:45:21.059Z,32.34
2018-08-20T04:47:48.758Z,32.20
2018-08-20T04:50:16.654Z,31.95
2018-08-20T04:52:44.169Z,31.36
2018-08-20T04:55:11.874Z,30.20
2018-08-20T04:57:39.565Z,30.52
2018-08-20T05:00:09.434Z,30.80
2018-08-20T05:02:37.138Z,31.68
2018-08-20T05:05:04.882Z,32.10
2018-08-20T05:07:32.780Z,33.11
2018-08-20T05:10:00.676Z,33.24
2018-08-20T05:12:28.357Z,33.98
2018-08-20T05:14:56.018Z,34.55
2018-08-20T05:17:23.779Z,34.90
2018-08-20T05:19:51.487Z,35.21
2018-08-20T05:22:19.150Z,35.80
2018-08-20T05:24:46.822Z,35.89
2018-08-20T05:27:14.583Z,34.16
2018-08-20T05:29:42.319Z,31.99
2018-08-20T05:32:09.991Z,31.75
2018-08-20T05:34:37.649Z,32.02
2018-08-20T05:37:05.425Z,32.83
2018-08-20T05:39:34.521Z,32.66
2018-08-20T05:42:02.368Z,33.09
2018-08-20T05:44:30.024Z,32.76
2018-08-20T05:46:57.715Z,33.38
2018-08-20T05:49:25.388Z,33.36
2018-08-20T05:51:53.122Z,33.37
2018-08-20T05:54:21.022Z,32.59
2018-08-20T05:56:48.701Z,31.87
2018-08-20T05:59:16.423Z,30.56
2018-08-20T06:01:44.143Z,30.47
2018-08-20T06:04:11.853Z,30.00
2018-08-20T06:06:39.629Z,29.47
2018-08-20T06:09:08.709Z,29.87
2018-08-20T06:11:36.378Z,30.07
2018-08-20T06:14:04.535Z,29.40
2018-08-20T06:16:32.402Z,29.50
2018-08-20T06:19:00.141Z,29.88
2018-08-20T06:21:27.810Z,30.48
2018-08-20T06:23:55.584Z,29.82
2018-08-20T06:26:23.306Z,30.43
2018-08-20T06:28:50.998Z,30.01
2018-08-20T06:31:18.713Z,31.02
2018-08-20T06:33:46.397Z,31.01
2018-08-20T06:36:14.152Z,31.43
2018-08-20T06:38:41.856Z,30.88
2018-08-20T06:41:09.557Z,31.66
2018-08-20T06:43:37.273Z,32.94
2018-08-20T06:46:05.040Z,33.19
2018-08-20T06:48:33.749Z,32.69
2018-08-20T06:51:01.433Z,32.98
2018-08-20T06:53:29.101Z,33.54
2018-08-20T06:55:56.798Z,32.51
2018-08-20T06:58:24.520Z,33.26
2018-08-20T07:00:52.313Z,33.53
2018-08-20T07:03:20.369Z,33.78
2018-08-20T07:05:48.151Z,33.52
2018-08-20T07:08:15.916Z,32.62
2018-08-20T07:10:46.132Z,32.88
2018-08-20T07:13:25.573Z,32.46
2018-08-20T07:15:53.521Z,33.07
2018-08-20T07:18:21.258Z,33.93
2018-08-20T07:20:54.378Z,34.02
2018-08-20T07:23:22.067Z,33.62
2018-08-20T07:25:49.850Z,33.06
2018-08-20T07:28:17.615Z,32.29
2018-08-20T07:30:45.590Z,32.22
2018-08-20T07:33:13.257Z,32.11
2018-08-20T07:35:40.970Z,31.92
2018-08-20T07:38:08.989Z,31.69
2018-08-20T07:40:36.761Z,31.82
2018-08-20T07:43:04.579Z,32.71
2018-08-20T07:45:32.256Z,32.77
2018-08-20T07:48:00.072Z,32.39
2018-08-20T07:50:27.822Z,31.82
2018-08-20T07:52:55.477Z,32.46
2018-08-20T07:55:23.177Z,32.08
2018-08-20T07:57:50.861Z,32.78
2018-08-20T08:00:18.650Z,33.91
2018-08-20T08:02:46.370Z,33.20
2018-08-20T08:05:14.154Z,32.94
2018-08-20T08:07:41.961Z,32.84
2018-08-20T08:10:12.889Z,32.74
2018-08-20T08:12:40.620Z,32.67
2018-08-20T08:15:10.173Z,33.42
2018-08-20T08:17:37.930Z,34.31
2018-08-20T08:20:07.167Z,34.57
2018-08-20T08:22:34.978Z,34.83
2018-08-20T08:25:02.714Z,34.06
2018-08-20T08:27:30.526Z,34.40
2018-08-20T08:29:58.279Z,34.43
2018-08-20T08:32:26.046Z,34.73
2018-08-20T08:34:53.717Z,33.40
2018-08-20T08:37:21.400Z,32.86
2018-08-20T08:39:49.142Z,34.13
2018-08-20T08:42:16.845Z,34.68
2018-08-20T08:44:44.586Z,34.20
2018-08-20T08:47:12.347Z,33.67
2018-08-20T08:49:40.062Z,33.80
2018-08-20T08:52:07.808Z,34.34
2018-08-20T08:54:35.816Z,33.64
2018-08-20T08:57:03.568Z,34.00
2018-08-20T08:59:31.314Z,34.81
2018-08-20T09:01:59.096Z,35.48
2018-08-20T09:04:26.835Z,35.54
2018-08-20T09:06:54.514Z,35.90
2018-08-20T09:09:22.237Z,33.69
2018-08-20T09:11:49.921Z,33.60
2018-08-20T09:14:17.613Z,32.74
2018-08-20T09:16:45.343Z,32.99
2018-08-20T09:19:13.065Z,33.98
2018-08-20T09:21:40.797Z,34.58
2018-08-20T09:24:08.633Z,33.69
2018-08-20T09:26:36.653Z,33.82
2018-08-20T09:29:04.460Z,34.37
2018-08-20T09:31:32.261Z,35.05
2018-08-20T09:33:59.981Z,34.96
2018-08-20T09:36:27.685Z,34.72
2018-08-20T09:38:55.446Z,34.05
2018-08-20T09:41:23.178Z,34.50
2018-08-20T09:43:50.934Z,35.37
2018-08-20T09:46:18.583Z,35.02
2018-08-20T09:48:46.290Z,34.44
2018-08-20T09:51:14.018Z,34.66
2018-08-20T09:53:41.888Z,34.19
2018-08-20T09:56:09.740Z,34.32
2018-08-20T09:58:37.546Z,34.68
2018-08-20T10:01:05.336Z,35.64
2018-08-20T10:03:33.037Z,36.09
2018-08-20T10:06:00.766Z,35.53
2018-08-20T10:08:28.533Z,34.54
2018-08-20T10:10:56.264Z,34.55
2018-08-20T10:13:24.014Z,34.86
2018-08-20T10:15:51.782Z,34.61
2018-08-20T10:18:19.577Z,34.34
2018-08-20T10:20:47.393Z,33.85
2018-08-20T10:23:15.160Z,34.03
2018-08-20T10:25:42.873Z,34.03
2018-08-20T10:28:10.615Z,33.54
2018-08-20T10:30:38.293Z,34.15
2018-08-20T10:33:06.983Z,34.76
2018-08-20T10:35:34.700Z,34.51
2018-08-20T10:38:02.512Z,34.56
2018-08-20T10:40:30.185Z,34.38
2018-08-20T10:42:57.921Z,34.61
2018-08-20T10:45:31.556Z,35.23
2018-08-20T10:47:59.352Z,34.99
2018-08-20T10:50:27.092Z,35.65
2018-08-20T10:52:54.815Z,34.67
2018-08-20T10:55:22.605Z,35.11
2018-08-20T10:57:50.417Z,34.94
2018-08-20T11:00:18.205Z,34.32
2018-08-20T11:02:46.308Z,34.64
2018-08-20T11:05:16.736Z,35.40
2018-08-20T11:07:44.548Z,35.07
2018-08-20T11:10:12.414Z,35.43
2018-08-20T11:12:40.186Z,34.85
2018-08-20T11:15:09.531Z,34.85
2018-08-20T11:17:37.737Z,37.03
2018-08-20T11:20:08.457Z,36.27
2018-08-20T11:22:36.556Z,35.35
2018-08-20T11:25:04.905Z,34.76
2018-08-20T11:27:33.117Z,34.18
2018-08-20T11:30:00.928Z,35.06
2018-08-20T11:32:28.661Z,35.74
2018-08-20T11:34:56.737Z,36.12
2018-08-20T11:37:24.469Z,36.13
2018-08-20T11:39:52.157Z,35.20
2018-08-20T11:42:20.732Z,34.90
2018-08-20T11:44:48.441Z,35.79
2018-08-20T11:47:16.164Z,35.99
2018-08-20T11:49:43.871Z,35.22
2018-08-20T11:52:11.641Z,34.30
2018-08-20T11:54:39.390Z,33.92
2018-08-20T11:57:07.120Z,34.26
2018-08-20T11:59:34.854Z,34.42
2018-08-20T12:02:02.721Z,35.68
2018-08-20T12:04:30.349Z,35.56
2018-08-20T12:06:58.095Z,35.38
2018-08-20T12:09:25.782Z,35.64
2018-08-20T12:11:53.546Z,35.50
2018-08-20T12:14:21.249Z,36.14
2018-08-20T12:16:48.965Z,36.23
2018-08-20T12:19:16.675Z,36.61
2018-08-20T12:21:44.357Z,37.01
2018-08-20T12:24:12.066Z,36.79
2018-08-20T12:26:39.750Z,36.82
2018-08-20T12:29:07.486Z,37.43
2018-08-20T12:31:35.165Z,36.71
2018-08-20T12:34:02.848Z,36.10
2018-08-20T12:36:30.554Z,36.81
2018-08-20T12:38:58.256Z,37.98
2018-08-20T12:41:25.934Z,37.54
2018-08-20T12:43:53.687Z,36.21
2018-08-20T12:46:21.408Z,35.19
2018-08-20T12:48:50.759Z,34.97
2018-08-20T12:51:19.090Z,35.26
2018-08-20T12:53:46.744Z,35.92
2018-08-20T12:56:14.479Z,37.12
2018-08-20T12:58:52.315Z,38.06
2018-08-20T13:01:20.277Z,37.30
2018-08-20T13:03:48.649Z,36.62
2018-08-20T13:06:16.476Z,36.92
2018-08-20T13:08:45.069Z,37.17
2018-08-20T13:11:12.806Z,37.79
2018-08-20T13:13:40.687Z,38.38
2018-08-20T13:16:08.727Z,38.55
2018-08-20T13:18:36.348Z,38.22
2018-08-20T13:21:04.142Z,37.73
2018-08-20T13:23:31.846Z,37.96
2018-08-20T13:25:59.657Z,38.12
2018-08-20T13:28:27.421Z,38.57
2018-08-20T13:30:55.153Z,39.05
2018-08-20T13:33:22.896Z,38.41
2018-08-20T13:35:50.644Z,36.81
2018-08-20T13:38:18.484Z,36.95
2018-08-20T13:40:46.213Z,37.46
2018-08-20T13:43:13.965Z,37.98
2018-08-20T13:45:41.716Z,37.59
2018-08-20T13:48:09.909Z,36.54
2018-08-20T13:50:37.643Z,35.93
2018-08-20T13:53:05.623Z,35.13
2018-08-20T13:55:33.305Z,35.74
2018-08-20T13:58:01.072Z,35.99
2018-08-20T14:00:28.752Z,36.48
2018-08-20T14:02:56.480Z,36.11
2018-08-20T14:05:24.222Z,35.84
2018-08-20T14:07:51.949Z,35.34
2018-08-20T14:10:19.648Z,35.11
2018-08-20T14:12:47.347Z,35.18
2018-08-20T14:15:15.246Z,35.83
2018-08-20T14:17:43.520Z,35.78
2018-08-20T14:20:13.711Z,35.43
2018-08-20T14:22:42.544Z,35.73
2018-08-20T14:25:10.437Z,35.07
2018-08-20T14:27:38.110Z,34.99
2018-08-20T14:30:10.630Z,35.58
2018-08-20T14:32:38.338Z,36.02
2018-08-20T14:35:06.672Z,35.99
2018-08-20T14:37:34.370Z,35.97
2018-08-20T14:40:02.147Z,36.12
2018-08-20T14:42:30.169Z,36.10
2018-08-20T14:44:57.983Z,36.10
2018-08-20T14:47:25.948Z,36.13
2018-08-20T14:49:53.698Z,35.72
2018-08-20T14:52:21.489Z,35.61
2018-08-20T14:54:49.162Z,35.80
2018-08-20T14:57:16.976Z,35.53
2018-08-20T14:59:44.690Z,35.54
2018-08-20T15:02:12.409Z,34.99
2018-08-20T15:04:40.121Z,35.00
2018-08-20T15:07:09.379Z,34.82
2018-08-20T15:09:37.281Z,34.88
2018-08-20T15:12:05.146Z,35.41
2018-08-20T15:14:32.896Z,35.84
2018-08-20T15:17:00.672Z,35.70
2018-08-20T15:19:28.346Z,35.04
2018-08-20T15:21:56.085Z,35.23
2018-08-20T15:24:23.769Z,34.94
2018-08-20T15:26:51.451Z,34.91
2018-08-20T15:29:19.668Z,35.00
2018-08-20T15:31:47.603Z,34.88
2018-08-20T15:34:15.564Z,34.89
2018-08-20T15:36:43.270Z,35.18
2018-08-20T15:39:11.299Z,35.08
2018-08-20T15:41:39.089Z,34.72
2018-08-20T15:44:08.271Z,34.54
2018-08-20T15:46:35.971Z,34.88
2018-08-20T15:49:04.710Z,34.61
2018-08-20T15:51:32.485Z,34.72
2018-08-20T15:54:00.318Z,35.05
2018-08-20T15:56:28.365Z,34.54
2018-08-20T15:58:56.123Z,34.60
2018-08-20T16:01:23.848Z,34.54
2018-08-20T16:03:51.889Z,34.54
2018-08-20T16:06:19.628Z,34.63
2018-08-20T16:08:47.411Z,34.73
2018-08-20T16:11:15.141Z,34.59
2018-08-20T16:13:42.887Z,34.15
2018-08-20T16:16:10.665Z,34.13
2018-08-20T16:18:38.813Z,34.16
2018-08-20T16:21:06.533Z,34.10
2018-08-20T16:23:34.440Z,33.97
2018-08-20T16:26:02.169Z,33.63
2018-08-20T16:28:29.854Z,33.43
2018-08-20T16:30:57.629Z,33.28
2018-08-20T16:33:25.326Z,33.16
2018-08-20T16:35:53.001Z,33.09
2018-08-20T16:38:20.758Z,32.96
2018-08-20T16:40:48.577Z,32.95
2018-08-20T16:43:16.289Z,32.32
2018-08-20T16:45:43.977Z,31.83
2018-08-20T16:48:11.752Z,31.01
2018-08-20T16:50:40.523Z,31.02
2018-08-20T16:53:08.408Z,30.93
2018-08-20T16:55:36.080Z,31.05
2018-08-20T16:58:03.861Z,30.85
2018-08-20T17:00:31.549Z,30.35
2018-08-20T17:02:59.262Z,30.19
2018-08-20T17:05:33.140Z,30.04
2018-08-20T17:08:01.131Z,29.80
2018-08-20T17:10:29.261Z,29.43
2018-08-20T17:12:57.078Z,29.47
2018-08-20T17:15:24.814Z,29.38
2018-08-20T17:17:52.490Z,29.38
2018-08-20T17:20:20.197Z,29.36
2018-08-20T17:22:47.867Z,29.05
2018-08-20T17:25:15.578Z,28.99
2018-08-20T17:27:49.790Z,28.79
2018-08-20T17:30:17.534Z,28.64
2018-08-20T17:32:45.273Z,28.44
2018-08-20T17:35:12.950Z,28.21
2018-08-20T17:37:40.913Z,28.19
2018-08-20T17:40:09.826Z,28.04
2018-08-20T17:42:37.562Z,27.97
2018-08-20T17:45:06.741Z,27.95
2018-08-20T17:47:38.478Z,27.87
2018-08-20T17:50:10.733Z,27.84
2018-08-20T17:52:40.572Z,27.91
2018-08-20T17:55:08.271Z,27.86
2018-08-20T17:57:35.941Z,27.75
2018-08-20T18:00:43.667Z,27.84
2018-08-20T18:03:18.911Z,27.73
2018-08-20T18:05:51.230Z,27.69
2018-08-20T18:08:18.926Z,27.61
2018-08-20T18:10:46.613Z,27.22
2018-08-20T18:13:26.277Z,27.39
2018-08-20T18:15:54.003Z,27.37
2018-08-20T18:18:21.858Z,27.04
2018-08-20T18:20:49.546Z,27.14
2018-08-20T18:23:17.309Z,27.09
2018-08-20T18:25:44.959Z,27.16
2018-08-20T18:28:12.651Z,27.14
2018-08-20T18:30:40.422Z,27.02
2018-08-20T18:33:08.158Z,27.12
2018-08-20T18:35:36.659Z,27.20
2018-08-20T18:38:04.491Z,27.20
2018-08-20T18:40:32.388Z,27.24
2018-08-20T18:43:00.174Z,26.96
2018-08-20T18:45:27.883Z,26.54
2018-08-20T18:47:55.639Z,26.35
2018-08-20T18:50:23.457Z,26.25
2018-08-20T18:52:51.305Z,26.28
2018-08-20T18:55:19.059Z,26.32
2018-08-20T18:57:46.746Z,26.42
2018-08-20T19:00:15.083Z,26.48
2018-08-20T19:02:48.845Z,26.54
2018-08-20T19:05:17.557Z,26.58
2018-08-20T19:07:45.564Z,26.57
2018-08-20T19:10:20.745Z,26.34
2018-08-20T19:12:48.570Z,26.21
2018-08-20T19:15:27.493Z,26.07
2018-08-20T19:17:55.352Z,25.99
2018-08-20T19:20:23.117Z,25.90
2018-08-20T19:22:50.853Z,25.69
2018-08-20T19:25:18.557Z,25.59
2018-08-20T19:27:46.332Z,25.53
2018-08-20T19:30:19.667Z,25.56
2018-08-20T19:32:47.408Z,25.56
2018-08-20T19:35:15.145Z,25.52
2018-08-20T19:37:43.298Z,25.54
2018-08-20T19:40:11.087Z,25.57
2018-08-20T19:42:38.797Z,25.61
2018-08-20T19:45:08.598Z,25.68
2018-08-20T19:47:36.292Z,25.77
2018-08-20T19:50:05.385Z,25.75
2018-08-20T19:52:33.138Z,25.77
2018-08-20T19:55:06.178Z,25.63
2018-08-20T19:57:34.028Z,25.48
2018-08-20T20:00:02.019Z,25.31
2018-08-20T20:02:29.893Z,25.33
2018-08-20T20:05:03.591Z,25.38
2018-08-20T20:07:31.956Z,25.46
2018-08-20T20:09:59.761Z,25.53
2018-08-20T20:12:27.534Z,25.40
2018-08-20T20:14:57.639Z,25.51
2018-08-20T20:17:25.325Z,25.52
2018-08-20T20:19:53.090Z,25.64
2018-08-20T20:22:20.881Z,25.52
2018-08-20T20:24:48.585Z,25.63
2018-08-20T20:27:16.314Z,25.74
2018-08-20T20:29:43.992Z,25.59
2018-08-20T20:32:11.730Z,25.38
2018-08-20T20:34:39.490Z,25.38
2018-08-20T20:37:07.322Z,25.33
2018-08-20T20:39:35.465Z,25.11
2018-08-20T20:42:03.241Z,25.15
2018-08-20T20:44:30.949Z,24.90
2018-08-20T20:46:58.685Z,24.69
2018-08-20T20:49:26.458Z,24.75
2018-08-20T20:51:54.178Z,24.86
2018-08-20T20:54:21.837Z,24.88
2018-08-20T20:56:49.566Z,24.90
2018-08-20T20:59:17.273Z,24.90
2018-08-20T21:01:44.969Z,24.85
2018-08-20T21:04:12.685Z,24.81
2018-08-20T21:06:41.322Z,24.86
2018-08-20T21:09:10.478Z,24.93
2018-08-20T21:11:38.228Z,24.97
2018-08-20T21:14:06.001Z,24.98
2018-08-20T21:16:33.694Z,24.98
2018-08-20T21:19:04.845Z,25.03
2018-08-20T21:21:33.225Z,24.94
2018-08-20T21:24:01.049Z,24.90
2018-08-20T21:26:28.825Z,24.99
2018-08-20T21:28:56.549Z,25.02
2018-08-20T21:31:25.378Z,24.90
2018-08-20T21:33:55.154Z,24.89
2018-08-20T21:36:22.846Z,24.86
2018-08-20T21:38:50.521Z,24.68
2018-08-20T21:41:27.668Z,24.79
2018-08-20T21:43:55.418Z,24.79
2018-08-20T21:46:23.173Z,24.62
2018-08-20T21:48:50.900Z,24.68
2018-08-20T21:51:26.875Z,24.74
2018-08-20T21:53:54.578Z,24.72
2018-08-20T21:56:22.351Z,24.65
2018-08-20T21:58:50.046Z,24.77
2018-08-20T22:01:18.260Z,24.86
2018-08-20T22:03:46.321Z,24.87
2018-08-20T22:06:14.402Z,24.81
2018-08-20T22:08:42.147Z,24.72
2018-08-20T22:11:10.537Z,24.61
2018-08-20T22:13:38.353Z,24.42
2018-08-20T22:16:20.714Z,24.47
2018-08-20T22:18:56.034Z,24.33
2018-08-20T22:21:23.913Z,24.22
2018-08-20T22:23:52.284Z,24.08
2018-08-20T22:26:20.987Z,24.03
2018-08-20T22:28:50.113Z,24.02
2018-08-20T22:31:17.941Z,24.08
2018-08-20T22:33:55.084Z,24.11
2018-08-20T22:36:23.101Z,24.14
2018-08-20T22:38:59.888Z,24.07
2018-08-20T22:41:28.675Z,24.11
2018-08-20T22:43:56.392Z,24.08
2018-08-20T22:46:24.908Z,24.02
2018-08-20T22:48:55.733Z,23.96
2018-08-20T22:51:24.969Z,23.97
2018-08-20T22:53:53.885Z,23.91
2018-08-20T22:56:26.239Z,23.97
2018-08-20T22:58:57.849Z,23.96
2018-08-20T23:01:25.589Z,23.97
2018-08-20T23:03:53.258Z,23.91
2018-08-20T23:06:20.926Z,23.80
2018-08-20T23:08:48.618Z,23.66
2018-08-20T23:11:27.517Z,23.73
2018-08-20T23:13:55.253Z,23.83
2018-08-20T23:16:23.038Z,23.83
2018-08-20T23:18:50.717Z,23.81
2018-08-20T23:21:18.525Z,23.76
2018-08-20T23:23:46.190Z,23.65
2018-08-20T23:26:14.112Z,23.53
2018-08-20T23:28:41.860Z,23.14
2018-08-20T23:31:09.691Z,23.31
2018-08-20T23:33:38.213Z,23.27
2018-08-20T23:36:05.989Z,23.20
2018-08-20T23:38:33.745Z,23.03
2018-08-20T23:41:01.478Z,22.98
2018-08-20T23:43:29.696Z,23.11
2018-08-20T23:45:57.409Z,23.00
2018-08-20T23:48:25.187Z,22.92
2018-08-20T23:50:58.696Z,22.83
2018-08-20T23:53:27.505Z,22.74
2018-08-20T23:55:55.218Z,22.71
2018-08-20T23:58:22.890Z,22.63
